Alstead Center, New Hampshire
Current Conditions -  °F | °C
As of 12:35 PM on Friday 24 Oct 2014 (Local Time) from KEEN Reporting Station
Overcast Overcast  
Wind Chill: 44°   Ceiling: 1800
Heat Index: 48°   Visibility: 10mi
Dew Point: 37°   Wind: 9mph
Humidity: 66%   Direction: 350°N
Pressure: 29.76"   Gusts: NA
Location:  43.1141°N, 72.3097°W
Report Text: KEEN 241635Z AUTO 35008KT 10SM OVC018 09/03 A2976 RMK AO1
Loading
Personal Weather Stations






























Interactive Weather Map
Tropical Storm Tracking
New forecast layout! Learn more

10-Day Weather Forecast

Advertisements
Track Severe Weather on mobile